sensor_id;sensor_type;location;lat;lon;timestamp;temperature;humidity
36384;DHT22;22418;51.210;6.976;2022-12-18T00:01:45;0.70;99.90
36384;DHT22;22418;51.210;6.976;2022-12-18T00:04:23;0.80;99.90
36384;DHT22;22418;51.210;6.976;2022-12-18T00:06:54;0.70;99.90
36384;DHT22;22418;51.210;6.976;2022-12-18T00:09:25;0.70;99.90
36384;DHT22;22418;51.210;6.976;2022-12-18T00:11:55;0.70;99.90
36384;DHT22;22418;51.210;6.976;2022-12-18T00:14:26;0.60;99.90
36384;DHT22;22418;51.210;6.976;2022-12-18T00:16:56;0.70;99.90
36384;DHT22;22418;51.210;6.976;2022-12-18T00:19:28;0.80;99.90
36384;DHT22;22418;51.210;6.976;2022-12-18T00:21:59;0.70;99.90
36384;DHT22;22418;51.210;6.976;2022-12-18T00:24:29;0.60;99.90
36384;DHT22;22418;51.210;6.976;2022-12-18T00:27:00;0.30;99.90
36384;DHT22;22418;51.210;6.976;2022-12-18T00:29:30;0.20;99.90
36384;DHT22;22418;51.210;6.976;2022-12-18T00:32:01;0.00;99.90
36384;DHT22;22418;51.210;6.976;2022-12-18T00:34:31;0.00;99.90
36384;DHT22;22418;51.210;6.976;2022-12-18T00:37:02;0.00;99.90
36384;DHT22;22418;51.210;6.976;2022-12-18T00:39:33;0.30;99.90
36384;DHT22;22418;51.210;6.976;2022-12-18T00:42:03;0.20;99.90
36384;DHT22;22418;51.210;6.976;2022-12-18T00:44:53;0.10;99.90
36384;DHT22;22418;51.210;6.976;2022-12-18T00:47:23;0.20;99.90
36384;DHT22;22418;51.210;6.976;2022-12-18T00:49:54;0.40;99.90
36384;DHT22;22418;51.210;6.976;2022-12-18T00:52:24;0.40;99.90
36384;DHT22;22418;51.210;6.976;2022-12-18T00:54:55;0.40;99.90
36384;DHT22;22418;51.210;6.976;2022-12-18T00:57:25;0.30;99.90
36384;DHT22;22418;51.210;6.976;2022-12-18T00:59:56;0.30;99.90
36384;DHT22;22418;51.210;6.976;2022-12-18T01:02:26;0.40;99.90
36384;DHT22;22418;51.210;6.976;2022-12-18T01:04:57;0.20;99.90
36384;DHT22;22418;51.210;6.976;2022-12-18T01:07:28;0.40;99.90
36384;DHT22;22418;51.210;6.976;2022-12-18T01:09:58;0.40;99.90
36384;DHT22;22418;51.210;6.976;2022-12-18T01:12:29;0.40;99.90
36384;DHT22;22418;51.210;6.976;2022-12-18T01:15:00;0.40;99.90
36384;DHT22;22418;51.210;6.976;2022-12-18T01:17:30;0.30;99.90
36384;DHT22;22418;51.210;6.976;2022-12-18T01:20:01;0.40;99.90
36384;DHT22;22418;51.210;6.976;2022-12-18T01:22:33;0.20;99.90
36384;DHT22;22418;51.210;6.976;2022-12-18T01:25:04;0.30;99.90
36384;DHT22;22418;51.210;6.976;2022-12-18T01:27:35;0.40;99.90
36384;DHT22;22418;51.210;6.976;2022-12-18T01:30:06;0.50;99.90
36384;DHT22;22418;51.210;6.976;2022-12-18T01:32:37;0.50;99.90
36384;DHT22;22418;51.210;6.976;2022-12-18T01:35:08;0.60;99.90
36384;DHT22;22418;51.210;6.976;2022-12-18T01:37:41;0.60;99.90
36384;DHT22;22418;51.210;6.976;2022-12-18T01:40:12;0.60;99.90
36384;DHT22;22418;51.210;6.976;2022-12-18T01:42:43;0.50;99.90
36384;DHT22;22418;51.210;6.976;2022-12-18T01:47:48;0.40;99.90
36384;DHT22;22418;51.210;6.976;2022-12-18T01:50:25;0.40;99.90
36384;DHT22;22418;51.210;6.976;2022-12-18T01:53:18;0.50;99.90
36384;DHT22;22418;51.210;6.976;2022-12-18T01:55:53;0.50;99.90
36384;DHT22;22418;51.210;6.976;2022-12-18T01:58:46;0.30;99.90
36384;DHT22;22418;51.210;6.976;2022-12-18T02:01:21;0.30;99.90
36384;DHT22;22418;51.210;6.976;2022-12-18T02:03:52;0.40;99.90
36384;DHT22;22418;51.210;6.976;2022-12-18T02:06:28;0.50;99.90
36384;DHT22;22418;51.210;6.976;2022-12-18T02:09:17;0.30;99.90
36384;DHT22;22418;51.210;6.976;2022-12-18T02:12:04;0.50;99.90
36384;DHT22;22418;51.210;6.976;2022-12-18T02:14:44;0.60;99.90
36384;DHT22;22418;51.210;6.976;2022-12-18T02:17:23;0.50;99.90
36384;DHT22;22418;51.210;6.976;2022-12-18T02:20:21;0.30;99.90
36384;DHT22;22418;51.210;6.976;2022-12-18T02:28:14;0.40;99.90
36384;DHT22;22418;51.210;6.976;2022-12-18T02:30:48;0.40;99.90
36384;DHT22;22418;51.210;6.976;2022-12-18T02:33:20;0.30;99.90
36384;DHT22;22418;51.210;6.976;2022-12-18T02:35:53;0.20;99.90
36384;DHT22;22418;51.210;6.976;2022-12-18T02:38:25;0.20;99.90
36384;DHT22;22418;51.210;6.976;2022-12-18T02:40:57;0.40;99.90
36384;DHT22;22418;51.210;6.976;2022-12-18T02:43:29;0.50;99.90
36384;DHT22;22418;51.210;6.976;2022-12-18T02:46:20;0.50;99.90
36384;DHT22;22418;51.210;6.976;2022-12-18T02:48:58;0.50;99.90
36384;DHT22;22418;51.210;6.976;2022-12-18T02:51:47;0.30;99.90
36384;DHT22;22418;51.210;6.976;2022-12-18T02:57:42;0.50;99.90
36384;DHT22;22418;51.210;6.976;2022-12-18T03:00:18;0.50;99.90
36384;DHT22;22418;51.210;6.976;2022-12-18T03:08:19;0.60;99.90
36384;DHT22;22418;51.210;6.976;2022-12-18T03:11:12;0.60;99.90
36384;DHT22;22418;51.210;6.976;2022-12-18T03:13:53;0.40;99.90
36384;DHT22;22418;51.210;6.976;2022-12-18T03:16:28;0.30;99.90
36384;DHT22;22418;51.210;6.976;2022-12-18T03:19:08;0.50;99.90
36384;DHT22;22418;51.210;6.976;2022-12-18T03:21:47;0.50;99.90
36384;DHT22;22418;51.210;6.976;2022-12-18T03:24:18;0.50;99.90
36384;DHT22;22418;51.210;6.976;2022-12-18T03:26:53;0.30;99.90
36384;DHT22;22418;51.210;6.976;2022-12-18T03:29:28;0.20;99.90
36384;DHT22;22418;51.210;6.976;2022-12-18T03:32:09;0.30;99.90
36384;DHT22;22418;51.210;6.976;2022-12-18T03:34:42;0.30;99.90
36384;DHT22;22418;51.210;6.976;2022-12-18T03:37:14;0.30;99.90
36384;DHT22;22418;51.210;6.976;2022-12-18T03:39:44;0.20;99.90
36384;DHT22;22418;51.210;6.976;2022-12-18T03:42:16;0.40;99.90
36384;DHT22;22418;51.210;6.976;2022-12-18T03:45:12;0.40;99.90
36384;DHT22;22418;51.210;6.976;2022-12-18T03:48:00;0.40;99.90
36384;DHT22;22418;51.210;6.976;2022-12-18T03:54:01;0.40;99.90
36384;DHT22;22418;51.210;6.976;2022-12-18T03:56:06;0.40;99.90
36384;DHT22;22418;51.210;6.976;2022-12-18T03:58:40;0.50;99.90
36384;DHT22;22418;51.210;6.976;2022-12-18T04:01:14;0.40;99.90
36384;DHT22;22418;51.210;6.976;2022-12-18T04:03:47;0.50;99.90
36384;DHT22;22418;51.210;6.976;2022-12-18T04:06:19;0.50;99.90
36384;DHT22;22418;51.210;6.976;2022-12-18T04:08:51;0.50;99.90
36384;DHT22;22418;51.210;6.976;2022-12-18T04:11:21;0.40;99.90
36384;DHT22;22418;51.210;6.976;2022-12-18T04:13:56;0.50;99.90
36384;DHT22;22418;51.210;6.976;2022-12-18T04:16:27;0.60;99.90
36384;DHT22;22418;51.210;6.976;2022-12-18T04:18:58;0.60;99.90
36384;DHT22;22418;51.210;6.976;2022-12-18T04:21:29;0.40;99.90
36384;DHT22;22418;51.210;6.976;2022-12-18T04:24:00;0.40;99.90
36384;DHT22;22418;51.210;6.976;2022-12-18T04:26:30;0.40;99.90
36384;DHT22;22418;51.210;6.976;2022-12-18T04:29:01;0.40;99.90
36384;DHT22;22418;51.210;6.976;2022-12-18T04:31:31;0.40;99.90
36384;DHT22;22418;51.210;6.976;2022-12-18T04:34:02;0.40;99.90
36384;DHT22;22418;51.210;6.976;2022-12-18T04:36:33;0.50;99.90
36384;DHT22;22418;51.210;6.976;2022-12-18T04:39:03;0.30;99.90
36384;DHT22;22418;51.210;6.976;2022-12-18T04:41:34;0.30;99.90
36384;DHT22;22418;51.210;6.976;2022-12-18T04:44:04;0.30;99.90
36384;DHT22;22418;51.210;6.976;2022-12-18T04:46:35;0.40;99.90
36384;DHT22;22418;51.210;6.976;2022-12-18T04:49:06;0.50;99.90
36384;DHT22;22418;51.210;6.976;2022-12-18T04:51:36;0.70;99.90
36384;DHT22;22418;51.210;6.976;2022-12-18T04:54:07;0.80;99.90
36384;DHT22;22418;51.210;6.976;2022-12-18T04:56:38;0.70;99.90
36384;DHT22;22418;51.210;6.976;2022-12-18T04:59:08;0.60;99.90
36384;DHT22;22418;51.210;6.976;2022-12-18T05:01:39;0.70;99.90
36384;DHT22;22418;51.210;6.976;2022-12-18T05:04:09;0.70;99.90
36384;DHT22;22418;51.210;6.976;2022-12-18T05:06:40;0.70;99.90
36384;DHT22;22418;51.210;6.976;2022-12-18T05:09:10;0.60;99.90
36384;DHT22;22418;51.210;6.976;2022-12-18T05:11:41;0.70;99.90
36384;DHT22;22418;51.210;6.976;2022-12-18T05:14:12;0.80;99.90
36384;DHT22;22418;51.210;6.976;2022-12-18T05:16:42;0.50;99.90
36384;DHT22;22418;51.210;6.976;2022-12-18T05:19:13;0.70;99.90
36384;DHT22;22418;51.210;6.976;2022-12-18T05:21:43;0.70;99.90
36384;DHT22;22418;51.210;6.976;2022-12-18T05:24:14;0.80;99.90
36384;DHT22;22418;51.210;6.976;2022-12-18T05:26:44;0.70;99.90
36384;DHT22;22418;51.210;6.976;2022-12-18T05:29:15;0.80;99.90
36384;DHT22;22418;51.210;6.976;2022-12-18T05:31:45;0.70;99.90
36384;DHT22;22418;51.210;6.976;2022-12-18T05:34:16;0.90;99.90
36384;DHT22;22418;51.210;6.976;2022-12-18T05:36:47;0.70;99.90
36384;DHT22;22418;51.210;6.976;2022-12-18T05:39:17;0.60;99.90
36384;DHT22;22418;51.210;6.976;2022-12-18T05:41:48;0.70;99.90
36384;DHT22;22418;51.210;6.976;2022-12-18T05:44:18;0.40;99.90
36384;DHT22;22418;51.210;6.976;2022-12-18T05:46:49;0.60;99.90
36384;DHT22;22418;51.210;6.976;2022-12-18T05:49:19;0.60;99.90
36384;DHT22;22418;51.210;6.976;2022-12-18T05:51:50;0.70;99.90
36384;DHT22;22418;51.210;6.976;2022-12-18T05:54:20;0.70;99.90
36384;DHT22;22418;51.210;6.976;2022-12-18T05:56:52;0.70;99.90
36384;DHT22;22418;51.210;6.976;2022-12-18T05:59:22;0.70;99.90
36384;DHT22;22418;51.210;6.976;2022-12-18T06:01:53;0.80;99.90
36384;DHT22;22418;51.210;6.976;2022-12-18T06:04:23;0.90;99.90
36384;DHT22;22418;51.210;6.976;2022-12-18T06:06:54;0.90;99.90
36384;DHT22;22418;51.210;6.976;2022-12-18T06:09:25;0.90;99.90
36384;DHT22;22418;51.210;6.976;2022-12-18T06:11:55;1.00;99.90
36384;DHT22;22418;51.210;6.976;2022-12-18T06:14:26;1.00;99.90
36384;DHT22;22418;51.210;6.976;2022-12-18T06:16:56;0.70;99.90
36384;DHT22;22418;51.210;6.976;2022-12-18T06:19:27;0.80;99.90
36384;DHT22;22418;51.210;6.976;2022-12-18T06:21:57;0.90;99.90
36384;DHT22;22418;51.210;6.976;2022-12-18T06:24:29;1.00;99.90
36384;DHT22;22418;51.210;6.976;2022-12-18T06:27:00;1.00;99.90
36384;DHT22;22418;51.210;6.976;2022-12-18T06:29:30;1.00;99.90
36384;DHT22;22418;51.210;6.976;2022-12-18T06:32:01;1.00;99.90
36384;DHT22;22418;51.210;6.976;2022-12-18T06:34:32;1.00;99.90
36384;DHT22;22418;51.210;6.976;2022-12-18T06:37:03;1.00;99.90
36384;DHT22;22418;51.210;6.976;2022-12-18T06:39:33;0.90;99.90
36384;DHT22;22418;51.210;6.976;2022-12-18T06:42:04;0.90;99.90
36384;DHT22;22418;51.210;6.976;2022-12-18T06:44:34;0.70;99.90
36384;DHT22;22418;51.210;6.976;2022-12-18T06:47:05;0.60;99.90
36384;DHT22;22418;51.210;6.976;2022-12-18T06:49:36;0.70;99.90
36384;DHT22;22418;51.210;6.976;2022-12-18T06:52:06;0.60;99.90
36384;DHT22;22418;51.210;6.976;2022-12-18T06:54:37;0.70;99.90
36384;DHT22;22418;51.210;6.976;2022-12-18T06:57:07;0.90;99.90
36384;DHT22;22418;51.210;6.976;2022-12-18T06:59:38;0.80;99.90
36384;DHT22;22418;51.210;6.976;2022-12-18T07:02:11;0.80;99.90
36384;DHT22;22418;51.210;6.976;2022-12-18T07:04:42;0.60;99.90
36384;DHT22;22418;51.210;6.976;2022-12-18T07:07:13;0.80;99.90
36384;DHT22;22418;51.210;6.976;2022-12-18T07:09:44;0.90;99.90
36384;DHT22;22418;51.210;6.976;2022-12-18T07:12:14;0.90;99.90
36384;DHT22;22418;51.210;6.976;2022-12-18T07:14:45;0.90;99.90
36384;DHT22;22418;51.210;6.976;2022-12-18T07:17:15;0.90;99.90
36384;DHT22;22418;51.210;6.976;2022-12-18T07:19:46;0.90;99.90
36384;DHT22;22418;51.210;6.976;2022-12-18T07:22:16;0.80;99.90
36384;DHT22;22418;51.210;6.976;2022-12-18T07:24:47;0.80;99.90
36384;DHT22;22418;51.210;6.976;2022-12-18T07:27:19;0.70;99.90
36384;DHT22;22418;51.210;6.976;2022-12-18T07:29:50;0.80;99.90
36384;DHT22;22418;51.210;6.976;2022-12-18T07:32:21;0.60;99.90
36384;DHT22;22418;51.210;6.976;2022-12-18T07:34:51;0.80;99.90
36384;DHT22;22418;51.210;6.976;2022-12-18T07:37:22;0.90;99.90
36384;DHT22;22418;51.210;6.976;2022-12-18T07:39:52;1.00;99.90
36384;DHT22;22418;51.210;6.976;2022-12-18T07:42:26;0.90;99.90
36384;DHT22;22418;51.210;6.976;2022-12-18T07:45:03;0.90;99.90
36384;DHT22;22418;51.210;6.976;2022-12-18T07:47:34;0.90;99.90
36384;DHT22;22418;51.210;6.976;2022-12-18T07:50:06;0.90;99.90
36384;DHT22;22418;51.210;6.976;2022-12-18T07:52:37;0.80;99.90
36384;DHT22;22418;51.210;6.976;2022-12-18T07:55:08;0.70;99.90
36384;DHT22;22418;51.210;6.976;2022-12-18T07:57:38;0.80;99.90
36384;DHT22;22418;51.210;6.976;2022-12-18T08:00:09;1.00;99.90
36384;DHT22;22418;51.210;6.976;2022-12-18T08:02:40;1.10;99.90
36384;DHT22;22418;51.210;6.976;2022-12-18T08:05:11;1.10;99.90
36384;DHT22;22418;51.210;6.976;2022-12-18T08:07:41;1.10;99.90
36384;DHT22;22418;51.210;6.976;2022-12-18T08:10:12;1.20;99.90
36384;DHT22;22418;51.210;6.976;2022-12-18T08:12:43;1.20;99.90
36384;DHT22;22418;51.210;6.976;2022-12-18T08:15:14;1.30;99.90
36384;DHT22;22418;51.210;6.976;2022-12-18T08:17:44;1.20;99.90
36384;DHT22;22418;51.210;6.976;2022-12-18T08:20:15;1.00;99.90
36384;DHT22;22418;51.210;6.976;2022-12-18T08:22:45;1.10;99.90
36384;DHT22;22418;51.210;6.976;2022-12-18T08:25:16;1.30;99.90
36384;DHT22;22418;51.210;6.976;2022-12-18T08:27:47;1.40;99.90
36384;DHT22;22418;51.210;6.976;2022-12-18T08:30:17;0.90;99.90
36384;DHT22;22418;51.210;6.976;2022-12-18T08:32:51;1.00;99.90
36384;DHT22;22418;51.210;6.976;2022-12-18T08:35:23;1.10;99.90
36384;DHT22;22418;51.210;6.976;2022-12-18T08:37:54;1.40;99.90
36384;DHT22;22418;51.210;6.976;2022-12-18T08:40:25;1.50;99.90
36384;DHT22;22418;51.210;6.976;2022-12-18T08:42:55;1.60;99.90
36384;DHT22;22418;51.210;6.976;2022-12-18T08:45:44;1.60;99.90
36384;DHT22;22418;51.210;6.976;2022-12-18T08:48:15;1.60;99.90
36384;DHT22;22418;51.210;6.976;2022-12-18T08:50:58;1.60;99.90
36384;DHT22;22418;51.210;6.976;2022-12-18T08:53:29;1.70;99.90
36384;DHT22;22418;51.210;6.976;2022-12-18T08:55:59;1.80;99.90
36384;DHT22;22418;51.210;6.976;2022-12-18T08:58:30;1.80;99.90
36384;DHT22;22418;51.210;6.976;2022-12-18T09:01:06;1.80;99.90
36384;DHT22;22418;51.210;6.976;2022-12-18T09:03:37;1.90;99.90
36384;DHT22;22418;51.210;6.976;2022-12-18T09:06:08;1.90;99.90
36384;DHT22;22418;51.210;6.976;2022-12-18T09:08:39;1.90;99.90
36384;DHT22;22418;51.210;6.976;2022-12-18T09:11:15;2.00;99.90
36384;DHT22;22418;51.210;6.976;2022-12-18T09:13:46;2.10;99.90
36384;DHT22;22418;51.210;6.976;2022-12-18T09:16:16;2.00;99.90
36384;DHT22;22418;51.210;6.976;2022-12-18T09:18:47;1.90;99.90
36384;DHT22;22418;51.210;6.976;2022-12-18T09:21:20;1.80;99.90
36384;DHT22;22418;51.210;6.976;2022-12-18T09:23:51;2.00;99.90
36384;DHT22;22418;51.210;6.976;2022-12-18T09:26:22;2.20;99.90
36384;DHT22;22418;51.210;6.976;2022-12-18T09:28:53;2.30;99.90
36384;DHT22;22418;51.210;6.976;2022-12-18T09:31:24;2.30;99.90
36384;DHT22;22418;51.210;6.976;2022-12-18T09:33:56;2.30;99.90
36384;DHT22;22418;51.210;6.976;2022-12-18T09:36:26;2.40;99.90
36384;DHT22;22418;51.210;6.976;2022-12-18T09:38:57;2.40;99.90
36384;DHT22;22418;51.210;6.976;2022-12-18T09:41:54;2.50;99.90
36384;DHT22;22418;51.210;6.976;2022-12-18T09:44:39;2.60;99.90
36384;DHT22;22418;51.210;6.976;2022-12-18T09:47:30;2.60;99.90
36384;DHT22;22418;51.210;6.976;2022-12-18T09:50:20;2.60;99.90
36384;DHT22;22418;51.210;6.976;2022-12-18T09:52:56;2.60;99.90
36384;DHT22;22418;51.210;6.976;2022-12-18T09:55:34;2.60;99.90
36384;DHT22;22418;51.210;6.976;2022-12-18T10:00:40;2.50;99.90
36384;DHT22;22418;51.210;6.976;2022-12-18T10:03:14;2.40;99.90
36384;DHT22;22418;51.210;6.976;2022-12-18T10:08:42;2.40;99.90
36384;DHT22;22418;51.210;6.976;2022-12-18T10:11:37;2.50;99.90
36384;DHT22;22418;51.210;6.976;2022-12-18T10:14:15;2.50;99.90
36384;DHT22;22418;51.210;6.976;2022-12-18T10:19:49;2.30;99.90
36384;DHT22;22418;51.210;6.976;2022-12-18T10:22:50;2.40;99.90
36384;DHT22;22418;51.210;6.976;2022-12-18T10:28:19;2.60;99.90
36384;DHT22;22418;51.210;6.976;2022-12-18T10:30:50;2.80;99.90
36384;DHT22;22418;51.210;6.976;2022-12-18T10:33:24;2.90;99.90
36384;DHT22;22418;51.210;6.976;2022-12-18T10:35:55;2.90;99.90
36384;DHT22;22418;51.210;6.976;2022-12-18T10:38:30;2.90;99.90
36384;DHT22;22418;51.210;6.976;2022-12-18T10:41:23;2.80;99.90
36384;DHT22;22418;51.210;6.976;2022-12-18T10:44:23;2.90;99.90
36384;DHT22;22418;51.210;6.976;2022-12-18T10:47:03;3.00;99.90
36384;DHT22;22418;51.210;6.976;2022-12-18T10:49:35;3.20;99.90
36384;DHT22;22418;51.210;6.976;2022-12-18T10:52:15;3.10;99.90
36384;DHT22;22418;51.210;6.976;2022-12-18T10:55:13;3.20;99.90
36384;DHT22;22418;51.210;6.976;2022-12-18T10:57:46;3.20;99.90
36384;DHT22;22418;51.210;6.976;2022-12-18T11:00:29;3.30;99.90
36384;DHT22;22418;51.210;6.976;2022-12-18T11:02:59;3.50;99.90
36384;DHT22;22418;51.210;6.976;2022-12-18T11:05:34;3.50;99.90
36384;DHT22;22418;51.210;6.976;2022-12-18T11:08:20;3.40;99.90
36384;DHT22;22418;51.210;6.976;2022-12-18T11:10:52;3.40;99.90
36384;DHT22;22418;51.210;6.976;2022-12-18T11:13:24;3.40;99.90
36384;DHT22;22418;51.210;6.976;2022-12-18T11:15:56;3.20;99.90
36384;DHT22;22418;51.210;6.976;2022-12-18T11:18:33;3.20;99.90
36384;DHT22;22418;51.210;6.976;2022-12-18T11:21:09;3.40;99.90
36384;DHT22;22418;51.210;6.976;2022-12-18T11:23:53;3.60;99.90
36384;DHT22;22418;51.210;6.976;2022-12-18T11:26:34;3.50;99.90
36384;DHT22;22418;51.210;6.976;2022-12-18T11:29:10;3.70;99.90
36384;DHT22;22418;51.210;6.976;2022-12-18T11:31:41;3.60;99.90
36384;DHT22;22418;51.210;6.976;2022-12-18T11:36:52;3.50;99.90
36384;DHT22;22418;51.210;6.976;2022-12-18T11:39:36;3.50;99.90
36384;DHT22;22418;51.210;6.976;2022-12-18T11:42:18;3.60;99.90
36384;DHT22;22418;51.210;6.976;2022-12-18T11:44:55;3.50;99.90
36384;DHT22;22418;51.210;6.976;2022-12-18T11:47:35;3.50;99.90
36384;DHT22;22418;51.210;6.976;2022-12-18T11:50:17;3.50;99.90
36384;DHT22;22418;51.210;6.976;2022-12-18T11:52:49;3.60;99.90
36384;DHT22;22418;51.210;6.976;2022-12-18T11:58:34;3.60;99.90
36384;DHT22;22418;51.210;6.976;2022-12-18T12:26:52;3.60;99.90
36384;DHT22;22418;51.210;6.976;2022-12-18T12:38:40;3.30;99.90
36384;DHT22;22418;51.210;6.976;2022-12-18T12:41:14;3.40;99.90
36384;DHT22;22418;51.210;6.976;2022-12-18T12:44:12;3.20;99.90
36384;DHT22;22418;51.210;6.976;2022-12-18T12:46:45;3.00;99.90
36384;DHT22;22418;51.210;6.976;2022-12-18T12:49:17;3.10;99.90
36384;DHT22;22418;51.210;6.976;2022-12-18T12:52:07;3.20;99.90
36384;DHT22;22418;51.210;6.976;2022-12-18T12:54:40;3.20;99.90
36384;DHT22;22418;51.210;6.976;2022-12-18T12:57:21;3.20;99.90
36384;DHT22;22418;51.210;6.976;2022-12-18T13:00:09;2.90;99.90
36384;DHT22;22418;51.210;6.976;2022-12-18T13:02:54;2.90;99.90
36384;DHT22;22418;51.210;6.976;2022-12-18T13:05:48;2.90;99.90
36384;DHT22;22418;51.210;6.976;2022-12-18T13:08:28;3.00;99.90
36384;DHT22;22418;51.210;6.976;2022-12-18T13:10:59;3.00;99.90
36384;DHT22;22418;51.210;6.976;2022-12-18T13:13:54;3.10;99.90
36384;DHT22;22418;51.210;6.976;2022-12-18T13:16:26;3.10;99.90
36384;DHT22;22418;51.210;6.976;2022-12-18T13:18:58;3.20;99.90
36384;DHT22;22418;51.210;6.976;2022-12-18T13:21:30;3.10;99.90
36384;DHT22;22418;51.210;6.976;2022-12-18T13:24:25;3.20;99.90
36384;DHT22;22418;51.210;6.976;2022-12-18T13:26:56;3.20;99.90
36384;DHT22;22418;51.210;6.976;2022-12-18T13:29:45;3.20;99.90
36384;DHT22;22418;51.210;6.976;2022-12-18T13:32:23;3.20;99.90
36384;DHT22;22418;51.210;6.976;2022-12-18T13:37:53;3.20;99.90
36384;DHT22;22418;51.210;6.976;2022-12-18T13:46:00;3.10;99.90
36384;DHT22;22418;51.210;6.976;2022-12-18T13:48:37;3.10;99.90
36384;DHT22;22418;51.210;6.976;2022-12-18T13:51:10;3.00;99.90
36384;DHT22;22418;51.210;6.976;2022-12-18T13:53:59;2.90;99.90
36384;DHT22;22418;51.210;6.976;2022-12-18T13:56:32;2.90;99.90
36384;DHT22;22418;51.210;6.976;2022-12-18T14:01:54;2.90;99.90
36384;DHT22;22418;51.210;6.976;2022-12-18T14:04:29;3.00;99.90
36384;DHT22;22418;51.210;6.976;2022-12-18T14:07:05;2.90;99.90
36384;DHT22;22418;51.210;6.976;2022-12-18T14:09:40;2.80;99.90
36384;DHT22;22418;51.210;6.976;2022-12-18T14:12:17;2.80;99.90
36384;DHT22;22418;51.210;6.976;2022-12-18T14:20:32;2.70;99.90
36384;DHT22;22418;51.210;6.976;2022-12-18T14:23:03;2.70;99.90
36384;DHT22;22418;51.210;6.976;2022-12-18T14:25:33;2.70;99.90
36384;DHT22;22418;51.210;6.976;2022-12-18T14:30:40;2.80;99.90
36384;DHT22;22418;51.210;6.976;2022-12-18T14:33:14;3.00;99.90
36384;DHT22;22418;51.210;6.976;2022-12-18T14:36:05;2.80;99.90
36384;DHT22;22418;51.210;6.976;2022-12-18T14:38:37;2.80;99.90
36384;DHT22;22418;51.210;6.976;2022-12-18T14:41:13;2.90;99.90
36384;DHT22;22418;51.210;6.976;2022-12-18T14:43:46;2.70;99.90
36384;DHT22;22418;51.210;6.976;2022-12-18T14:51:56;2.70;99.90
36384;DHT22;22418;51.210;6.976;2022-12-18T14:54:28;2.70;99.90
36384;DHT22;22418;51.210;6.976;2022-12-18T14:57:06;2.90;99.90
36384;DHT22;22418;51.210;6.976;2022-12-18T14:59:46;2.80;99.90
36384;DHT22;22418;51.210;6.976;2022-12-18T15:05:24;2.80;99.90
36384;DHT22;22418;51.210;6.976;2022-12-18T15:07:58;2.70;99.90
36384;DHT22;22418;51.210;6.976;2022-12-18T15:10:33;2.70;99.90
36384;DHT22;22418;51.210;6.976;2022-12-18T15:20:44;2.70;99.90
36384;DHT22;22418;51.210;6.976;2022-12-18T15:23:16;2.80;99.90
36384;DHT22;22418;51.210;6.976;2022-12-18T15:26:01;2.80;99.90
36384;DHT22;22418;51.210;6.976;2022-12-18T15:28:47;2.70;99.90
36384;DHT22;22418;51.210;6.976;2022-12-18T15:31:44;2.70;99.90
36384;DHT22;22418;51.210;6.976;2022-12-18T15:34:27;2.70;99.90
36384;DHT22;22418;51.210;6.976;2022-12-18T15:36:58;2.70;99.90
36384;DHT22;22418;51.210;6.976;2022-12-18T15:39:29;2.70;99.90
36384;DHT22;22418;51.210;6.976;2022-12-18T15:42:01;2.60;99.90
36384;DHT22;22418;51.210;6.976;2022-12-18T15:44:50;2.60;99.90
36384;DHT22;22418;51.210;6.976;2022-12-18T15:47:20;2.70;99.90
36384;DHT22;22418;51.210;6.976;2022-12-18T15:49:51;2.70;99.90
36384;DHT22;22418;51.210;6.976;2022-12-18T15:52:21;2.80;99.90
36384;DHT22;22418;51.210;6.976;2022-12-18T15:54:56;2.80;99.90
36384;DHT22;22418;51.210;6.976;2022-12-18T15:57:45;2.70;99.90
36384;DHT22;22418;51.210;6.976;2022-12-18T16:00:15;2.60;99.90
36384;DHT22;22418;51.210;6.976;2022-12-18T16:02:46;2.60;99.90
36384;DHT22;22418;51.210;6.976;2022-12-18T16:05:18;2.50;99.90
36384;DHT22;22418;51.210;6.976;2022-12-18T16:07:49;2.30;99.90
36384;DHT22;22418;51.210;6.976;2022-12-18T16:10:20;2.30;99.90
36384;DHT22;22418;51.210;6.976;2022-12-18T16:12:50;2.40;99.90
36384;DHT22;22418;51.210;6.976;2022-12-18T16:15:21;2.40;99.90
36384;DHT22;22418;51.210;6.976;2022-12-18T16:17:52;2.60;99.90
36384;DHT22;22418;51.210;6.976;2022-12-18T16:20:22;2.40;99.90
36384;DHT22;22418;51.210;6.976;2022-12-18T16:22:53;2.40;99.90
36384;DHT22;22418;51.210;6.976;2022-12-18T16:25:27;2.50;99.90
36384;DHT22;22418;51.210;6.976;2022-12-18T16:27:57;2.50;99.90
36384;DHT22;22418;51.210;6.976;2022-12-18T16:30:30;2.40;99.90
36384;DHT22;22418;51.210;6.976;2022-12-18T16:33:01;2.50;99.90
36384;DHT22;22418;51.210;6.976;2022-12-18T16:35:31;2.40;99.90
36384;DHT22;22418;51.210;6.976;2022-12-18T16:38:02;2.40;99.90
36384;DHT22;22418;51.210;6.976;2022-12-18T16:40:33;2.40;99.90
36384;DHT22;22418;51.210;6.976;2022-12-18T16:43:23;2.50;99.90
36384;DHT22;22418;51.210;6.976;2022-12-18T16:45:54;2.40;99.90
36384;DHT22;22418;51.210;6.976;2022-12-18T16:48:27;2.40;99.90
36384;DHT22;22418;51.210;6.976;2022-12-18T16:51:03;2.40;99.90
36384;DHT22;22418;51.210;6.976;2022-12-18T16:53:33;2.40;99.90
36384;DHT22;22418;51.210;6.976;2022-12-18T16:56:04;2.40;99.90
36384;DHT22;22418;51.210;6.976;2022-12-18T16:58:34;2.40;99.90
36384;DHT22;22418;51.210;6.976;2022-12-18T17:01:10;2.40;99.90
36384;DHT22;22418;51.210;6.976;2022-12-18T17:03:40;2.40;99.90
36384;DHT22;22418;51.210;6.976;2022-12-18T17:06:11;2.30;99.90
36384;DHT22;22418;51.210;6.976;2022-12-18T17:08:41;2.30;99.90
36384;DHT22;22418;51.210;6.976;2022-12-18T17:11:12;2.30;99.90
36384;DHT22;22418;51.210;6.976;2022-12-18T17:13:43;2.20;99.90
36384;DHT22;22418;51.210;6.976;2022-12-18T17:16:13;2.30;99.90
36384;DHT22;22418;51.210;6.976;2022-12-18T17:18:44;2.20;99.90
36384;DHT22;22418;51.210;6.976;2022-12-18T17:21:15;2.20;99.90
36384;DHT22;22418;51.210;6.976;2022-12-18T17:23:46;2.30;99.90
36384;DHT22;22418;51.210;6.976;2022-12-18T17:26:17;2.20;99.90
36384;DHT22;22418;51.210;6.976;2022-12-18T17:28:47;2.20;99.90
36384;DHT22;22418;51.210;6.976;2022-12-18T17:31:20;2.20;99.90
36384;DHT22;22418;51.210;6.976;2022-12-18T17:33:51;2.30;99.90
36384;DHT22;22418;51.210;6.976;2022-12-18T17:36:23;2.20;99.90
36384;DHT22;22418;51.210;6.976;2022-12-18T17:38:56;2.30;99.90
36384;DHT22;22418;51.210;6.976;2022-12-18T17:41:28;2.20;99.90
36384;DHT22;22418;51.210;6.976;2022-12-18T17:44:03;2.20;99.90
36384;DHT22;22418;51.210;6.976;2022-12-18T17:46:34;2.00;99.90
36384;DHT22;22418;51.210;6.976;2022-12-18T17:49:04;2.00;99.90
36384;DHT22;22418;51.210;6.976;2022-12-18T17:51:35;2.00;99.90
36384;DHT22;22418;51.210;6.976;2022-12-18T17:54:05;2.00;99.90
36384;DHT22;22418;51.210;6.976;2022-12-18T17:56:37;2.00;99.90
36384;DHT22;22418;51.210;6.976;2022-12-18T17:59:08;2.00;99.90
36384;DHT22;22418;51.210;6.976;2022-12-18T18:01:38;1.90;99.90
36384;DHT22;22418;51.210;6.976;2022-12-18T18:04:09;2.00;99.90
36384;DHT22;22418;51.210;6.976;2022-12-18T18:06:40;2.00;99.90
36384;DHT22;22418;51.210;6.976;2022-12-18T18:09:11;1.90;99.90
36384;DHT22;22418;51.210;6.976;2022-12-18T18:11:41;1.90;99.90
36384;DHT22;22418;51.210;6.976;2022-12-18T18:14:30;1.90;99.90
36384;DHT22;22418;51.210;6.976;2022-12-18T18:17:01;1.80;99.90